sensor_id;sensor_type;location;lat;lon;timestamp;P1;durP1;ratioP1;P2;durP2;ratioP2
66946;SDS011;53853;51.982;5.928;2023-09-19T00:01:13;3.42;;;1.65;;
66946;SDS011;53853;51.982;5.928;2023-09-19T00:03:45;3.65;;;1.48;;
66946;SDS011;53853;51.982;5.928;2023-09-19T00:06:15;3.20;;;1.33;;
66946;SDS011;53853;51.982;5.928;2023-09-19T00:08:46;4.68;;;1.73;;
66946;SDS011;53853;51.982;5.928;2023-09-19T00:11:18;6.05;;;2.15;;
66946;SDS011;53853;51.982;5.928;2023-09-19T00:13:51;4.50;;;2.03;;
66946;SDS011;53853;51.982;5.928;2023-09-19T00:16:25;4.03;;;1.67;;
66946;SDS011;53853;51.982;5.928;2023-09-19T00:18:55;5.45;;;2.00;;
66946;SDS011;53853;51.982;5.928;2023-09-19T00:21:29;4.38;;;1.83;;
66946;SDS011;53853;51.982;5.928;2023-09-19T00:24:01;4.55;;;2.00;;
66946;SDS011;53853;51.982;5.928;2023-09-19T00:26:34;4.68;;;1.92;;
66946;SDS011;53853;51.982;5.928;2023-09-19T00:29:04;7.65;;;2.55;;
66946;SDS011;53853;51.982;5.928;2023-09-19T00:31:34;10.13;;;3.08;;
66946;SDS011;53853;51.982;5.928;2023-09-19T00:34:05;8.77;;;2.42;;
66946;SDS011;53853;51.982;5.928;2023-09-19T00:36:36;5.78;;;2.08;;
66946;SDS011;53853;51.982;5.928;2023-09-19T00:39:09;7.78;;;2.70;;
66946;SDS011;53853;51.982;5.928;2023-09-19T00:41:41;4.93;;;2.03;;
66946;SDS011;53853;51.982;5.928;2023-09-19T00:44:11;9.10;;;3.33;;
66946;SDS011;53853;51.982;5.928;2023-09-19T00:46:41;10.57;;;3.05;;
66946;SDS011;53853;51.982;5.928;2023-09-19T00:49:15;11.85;;;2.80;;
66946;SDS011;53853;51.982;5.928;2023-09-19T00:51:48;11.13;;;3.60;;
66946;SDS011;53853;51.982;5.928;2023-09-19T00:54:18;15.60;;;3.17;;
66946;SDS011;53853;51.982;5.928;2023-09-19T00:56:50;7.82;;;2.33;;
66946;SDS011;53853;51.982;5.928;2023-09-19T00:59:20;8.93;;;2.13;;
66946;SDS011;53853;51.982;5.928;2023-09-19T01:01:50;6.32;;;2.63;;
66946;SDS011;53853;51.982;5.928;2023-09-19T01:04:22;7.05;;;2.60;;
66946;SDS011;53853;51.982;5.928;2023-09-19T01:06:53;10.85;;;2.72;;
66946;SDS011;53853;51.982;5.928;2023-09-19T01:09:23;7.15;;;2.58;;
66946;SDS011;53853;51.982;5.928;2023-09-19T01:11:58;6.43;;;1.90;;
66946;SDS011;53853;51.982;5.928;2023-09-19T01:14:37;9.68;;;3.28;;
66946;SDS011;53853;51.982;5.928;2023-09-19T01:17:15;6.22;;;2.85;;
66946;SDS011;53853;51.982;5.928;2023-09-19T01:20:10;8.98;;;3.70;;
66946;SDS011;53853;51.982;5.928;2023-09-19T01:22:53;10.70;;;3.33;;
66946;SDS011;53853;51.982;5.928;2023-09-19T01:31:49;8.88;;;3.10;;
66946;SDS011;53853;51.982;5.928;2023-09-19T01:34:22;8.95;;;3.33;;
66946;SDS011;53853;51.982;5.928;2023-09-19T01:36:52;11.27;;;3.97;;
66946;SDS011;53853;51.982;5.928;2023-09-19T01:39:24;8.95;;;3.47;;
66946;SDS011;53853;51.982;5.928;2023-09-19T01:41:56;11.45;;;3.67;;
66946;SDS011;53853;51.982;5.928;2023-09-19T01:44:36;12.68;;;3.90;;
66946;SDS011;53853;51.982;5.928;2023-09-19T01:47:19;12.43;;;4.50;;
66946;SDS011;53853;51.982;5.928;2023-09-19T01:49:55;11.00;;;3.22;;
66946;SDS011;53853;51.982;5.928;2023-09-19T01:52:43;12.23;;;3.72;;
66946;SDS011;53853;51.982;5.928;2023-09-19T01:55:17;12.50;;;3.72;;
66946;SDS011;53853;51.982;5.928;2023-09-19T01:57:51;13.57;;;4.15;;
66946;SDS011;53853;51.982;5.928;2023-09-19T02:00:30;11.88;;;3.50;;
66946;SDS011;53853;51.982;5.928;2023-09-19T02:03:08;8.10;;;3.35;;
66946;SDS011;53853;51.982;5.928;2023-09-19T02:08:09;10.73;;;3.25;;
66946;SDS011;53853;51.982;5.928;2023-09-19T02:10:39;12.40;;;3.03;;
66946;SDS011;53853;51.982;5.928;2023-09-19T02:13:15;11.30;;;3.97;;
66946;SDS011;53853;51.982;5.928;2023-09-19T02:15:46;8.55;;;3.47;;
66946;SDS011;53853;51.982;5.928;2023-09-19T02:18:18;11.98;;;3.85;;
66946;SDS011;53853;51.982;5.928;2023-09-19T02:20:48;8.50;;;2.97;;
66946;SDS011;53853;51.982;5.928;2023-09-19T02:23:19;10.82;;;3.03;;
66946;SDS011;53853;51.982;5.928;2023-09-19T02:25:52;10.10;;;2.97;;
66946;SDS011;53853;51.982;5.928;2023-09-19T02:28:24;11.38;;;3.20;;
66946;SDS011;53853;51.982;5.928;2023-09-19T02:30:56;12.52;;;3.45;;
66946;SDS011;53853;51.982;5.928;2023-09-19T02:33:28;14.48;;;3.45;;
66946;SDS011;53853;51.982;5.928;2023-09-19T02:35:58;10.88;;;3.70;;
66946;SDS011;53853;51.982;5.928;2023-09-19T02:38:29;7.60;;;3.05;;
66946;SDS011;53853;51.982;5.928;2023-09-19T02:40:59;12.50;;;3.63;;
66946;SDS011;53853;51.982;5.928;2023-09-19T02:46:11;10.82;;;3.30;;
66946;SDS011;53853;51.982;5.928;2023-09-19T02:48:45;8.10;;;2.65;;
66946;SDS011;53853;51.982;5.928;2023-09-19T02:51:16;12.40;;;3.63;;
66946;SDS011;53853;51.982;5.928;2023-09-19T02:53:46;13.73;;;3.50;;
66946;SDS011;53853;51.982;5.928;2023-09-19T02:56:18;9.10;;;3.35;;
66946;SDS011;53853;51.982;5.928;2023-09-19T02:58:48;9.77;;;3.28;;
66946;SDS011;53853;51.982;5.928;2023-09-19T03:01:18;11.77;;;3.47;;
66946;SDS011;53853;51.982;5.928;2023-09-19T03:03:51;7.10;;;2.90;;
66946;SDS011;53853;51.982;5.928;2023-09-19T03:06:21;9.63;;;3.83;;
66946;SDS011;53853;51.982;5.928;2023-09-19T03:08:51;11.02;;;3.15;;
66946;SDS011;53853;51.982;5.928;2023-09-19T03:11:22;14.30;;;3.67;;
66946;SDS011;53853;51.982;5.928;2023-09-19T03:13:56;12.43;;;3.38;;
66946;SDS011;53853;51.982;5.928;2023-09-19T03:16:26;10.68;;;3.38;;
66946;SDS011;53853;51.982;5.928;2023-09-19T03:19:01;9.07;;;3.28;;
66946;SDS011;53853;51.982;5.928;2023-09-19T03:21:32;11.60;;;3.65;;
66946;SDS011;53853;51.982;5.928;2023-09-19T03:24:02;12.23;;;3.40;;
66946;SDS011;53853;51.982;5.928;2023-09-19T03:26:33;11.60;;;3.75;;
66946;SDS011;53853;51.982;5.928;2023-09-19T03:29:04;10.20;;;3.58;;
66946;SDS011;53853;51.982;5.928;2023-09-19T03:31:36;11.35;;;3.55;;
66946;SDS011;53853;51.982;5.928;2023-09-19T03:34:10;7.05;;;2.25;;
66946;SDS011;53853;51.982;5.928;2023-09-19T03:36:40;10.80;;;3.25;;
66946;SDS011;53853;51.982;5.928;2023-09-19T03:39:10;8.85;;;3.20;;
66946;SDS011;53853;51.982;5.928;2023-09-19T03:41:40;11.60;;;3.17;;
66946;SDS011;53853;51.982;5.928;2023-09-19T03:44:11;11.18;;;3.50;;
66946;SDS011;53853;51.982;5.928;2023-09-19T03:46:41;11.52;;;3.28;;
66946;SDS011;53853;51.982;5.928;2023-09-19T03:49:13;12.25;;;3.33;;
66946;SDS011;53853;51.982;5.928;2023-09-19T03:51:44;8.10;;;3.10;;
66946;SDS011;53853;51.982;5.928;2023-09-19T03:54:14;7.93;;;3.00;;
66946;SDS011;53853;51.982;5.928;2023-09-19T03:56:45;11.45;;;3.08;;
66946;SDS011;53853;51.982;5.928;2023-09-19T03:59:16;9.05;;;2.90;;
66946;SDS011;53853;51.982;5.928;2023-09-19T04:01:46;9.15;;;2.85;;
66946;SDS011;53853;51.982;5.928;2023-09-19T04:04:18;8.23;;;2.63;;
66946;SDS011;53853;51.982;5.928;2023-09-19T04:06:50;11.65;;;3.17;;
66946;SDS011;53853;51.982;5.928;2023-09-19T04:09:20;9.63;;;3.42;;
66946;SDS011;53853;51.982;5.928;2023-09-19T04:11:51;11.55;;;3.25;;
66946;SDS011;53853;51.982;5.928;2023-09-19T04:14:21;10.90;;;3.20;;
66946;SDS011;53853;51.982;5.928;2023-09-19T04:16:50;9.80;;;3.53;;
66946;SDS011;53853;51.982;5.928;2023-09-19T04:19:23;12.55;;;3.47;;
66946;SDS011;53853;51.982;5.928;2023-09-19T04:21:54;12.40;;;3.45;;
66946;SDS011;53853;51.982;5.928;2023-09-19T04:24:24;7.82;;;2.72;;
66946;SDS011;53853;51.982;5.928;2023-09-19T04:26:54;14.93;;;3.78;;
66946;SDS011;53853;51.982;5.928;2023-09-19T04:29:25;12.98;;;3.78;;
66946;SDS011;53853;51.982;5.928;2023-09-19T04:31:55;16.50;;;4.35;;
66946;SDS011;53853;51.982;5.928;2023-09-19T04:34:28;9.32;;;2.88;;
66946;SDS011;53853;51.982;5.928;2023-09-19T04:36:58;7.35;;;2.55;;
66946;SDS011;53853;51.982;5.928;2023-09-19T04:39:29;12.05;;;3.72;;
66946;SDS011;53853;51.982;5.928;2023-09-19T04:41:59;8.55;;;3.00;;
66946;SDS011;53853;51.982;5.928;2023-09-19T04:44:29;9.35;;;2.85;;
66946;SDS011;53853;51.982;5.928;2023-09-19T04:46:59;9.18;;;3.53;;
66946;SDS011;53853;51.982;5.928;2023-09-19T04:49:32;7.13;;;3.40;;
66946;SDS011;53853;51.982;5.928;2023-09-19T04:52:02;10.65;;;4.07;;
66946;SDS011;53853;51.982;5.928;2023-09-19T04:54:32;9.00;;;3.22;;
66946;SDS011;53853;51.982;5.928;2023-09-19T04:57:03;8.95;;;3.42;;
66946;SDS011;53853;51.982;5.928;2023-09-19T04:59:33;10.60;;;3.47;;
66946;SDS011;53853;51.982;5.928;2023-09-19T05:02:03;9.20;;;2.50;;
66946;SDS011;53853;51.982;5.928;2023-09-19T05:04:36;11.80;;;3.50;;
66946;SDS011;53853;51.982;5.928;2023-09-19T05:07:06;9.18;;;3.78;;
66946;SDS011;53853;51.982;5.928;2023-09-19T05:09:37;10.00;;;3.03;;
66946;SDS011;53853;51.982;5.928;2023-09-19T05:12:08;10.45;;;2.65;;
66946;SDS011;53853;51.982;5.928;2023-09-19T05:14:38;8.52;;;3.17;;
66946;SDS011;53853;51.982;5.928;2023-09-19T05:17:09;9.57;;;3.40;;
66946;SDS011;53853;51.982;5.928;2023-09-19T05:19:41;13.25;;;3.92;;
66946;SDS011;53853;51.982;5.928;2023-09-19T05:22:11;8.40;;;3.15;;
66946;SDS011;53853;51.982;5.928;2023-09-19T05:24:41;7.78;;;2.83;;
66946;SDS011;53853;51.982;5.928;2023-09-19T05:27:13;10.75;;;3.13;;
66946;SDS011;53853;51.982;5.928;2023-09-19T05:29:43;11.43;;;3.53;;
66946;SDS011;53853;51.982;5.928;2023-09-19T05:32:13;9.38;;;3.35;;
66946;SDS011;53853;51.982;5.928;2023-09-19T05:34:48;9.95;;;3.10;;
66946;SDS011;53853;51.982;5.928;2023-09-19T05:37:18;9.13;;;3.28;;
66946;SDS011;53853;51.982;5.928;2023-09-19T05:39:49;13.45;;;3.58;;
66946;SDS011;53853;51.982;5.928;2023-09-19T05:42:19;12.52;;;3.45;;
66946;SDS011;53853;51.982;5.928;2023-09-19T05:44:49;12.45;;;3.25;;
66946;SDS011;53853;51.982;5.928;2023-09-19T05:47:19;9.07;;;3.35;;
66946;SDS011;53853;51.982;5.928;2023-09-19T05:49:53;11.23;;;3.30;;
66946;SDS011;53853;51.982;5.928;2023-09-19T05:52:23;7.85;;;2.90;;
66946;SDS011;53853;51.982;5.928;2023-09-19T05:54:53;10.77;;;3.35;;
66946;SDS011;53853;51.982;5.928;2023-09-19T05:57:23;8.43;;;3.13;;
66946;SDS011;53853;51.982;5.928;2023-09-19T05:59:59;10.43;;;2.78;;
66946;SDS011;53853;51.982;5.928;2023-09-19T06:02:38;9.00;;;3.75;;
66946;SDS011;53853;51.982;5.928;2023-09-19T06:05:13;10.40;;;3.30;;
66946;SDS011;53853;51.982;5.928;2023-09-19T06:07:43;7.22;;;3.33;;
66946;SDS011;53853;51.982;5.928;2023-09-19T06:10:13;9.13;;;3.13;;
66946;SDS011;53853;51.982;5.928;2023-09-19T06:12:43;6.38;;;2.83;;
66946;SDS011;53853;51.982;5.928;2023-09-19T06:15:14;11.07;;;3.30;;
66946;SDS011;53853;51.982;5.928;2023-09-19T06:17:46;10.00;;;3.20;;
66946;SDS011;53853;51.982;5.928;2023-09-19T06:20:19;7.32;;;2.25;;
66946;SDS011;53853;51.982;5.928;2023-09-19T06:22:49;10.30;;;2.90;;
66946;SDS011;53853;51.982;5.928;2023-09-19T06:25:20;9.48;;;2.67;;
66946;SDS011;53853;51.982;5.928;2023-09-19T06:27:51;13.50;;;3.42;;
66946;SDS011;53853;51.982;5.928;2023-09-19T06:30:22;10.45;;;3.60;;
66946;SDS011;53853;51.982;5.928;2023-09-19T06:32:55;9.65;;;2.80;;
66946;SDS011;53853;51.982;5.928;2023-09-19T06:35:28;8.75;;;2.75;;
66946;SDS011;53853;51.982;5.928;2023-09-19T06:38:02;10.63;;;3.22;;
66946;SDS011;53853;51.982;5.928;2023-09-19T06:40:37;10.45;;;3.20;;
66946;SDS011;53853;51.982;5.928;2023-09-19T06:43:09;11.15;;;3.50;;
66946;SDS011;53853;51.982;5.928;2023-09-19T06:45:59;12.65;;;3.20;;
66946;SDS011;53853;51.982;5.928;2023-09-19T06:48:30;9.15;;;2.55;;
66946;SDS011;53853;51.982;5.928;2023-09-19T06:51:03;14.82;;;3.92;;
66946;SDS011;53853;51.982;5.928;2023-09-19T06:53:33;8.15;;;3.35;;
66946;SDS011;53853;51.982;5.928;2023-09-19T06:56:03;13.13;;;3.20;;
66946;SDS011;53853;51.982;5.928;2023-09-19T06:58:33;10.23;;;2.85;;
66946;SDS011;53853;51.982;5.928;2023-09-19T07:01:04;5.65;;;2.25;;
66946;SDS011;53853;51.982;5.928;2023-09-19T07:03:34;7.93;;;3.40;;
66946;SDS011;53853;51.982;5.928;2023-09-19T07:06:07;8.80;;;3.03;;
66946;SDS011;53853;51.982;5.928;2023-09-19T07:08:37;11.95;;;3.50;;
66946;SDS011;53853;51.982;5.928;2023-09-19T07:11:07;8.18;;;3.20;;
66946;SDS011;53853;51.982;5.928;2023-09-19T07:13:38;10.15;;;3.95;;
66946;SDS011;53853;51.982;5.928;2023-09-19T07:16:08;10.45;;;3.53;;
66946;SDS011;53853;51.982;5.928;2023-09-19T07:18:53;9.70;;;3.03;;
66946;SDS011;53853;51.982;5.928;2023-09-19T07:21:27;13.07;;;4.07;;
66946;SDS011;53853;51.982;5.928;2023-09-19T07:23:59;9.75;;;3.83;;
66946;SDS011;53853;51.982;5.928;2023-09-19T07:26:29;14.75;;;4.65;;
66946;SDS011;53853;51.982;5.928;2023-09-19T07:29:00;11.85;;;3.60;;
66946;SDS011;53853;51.982;5.928;2023-09-19T07:31:30;10.35;;;3.08;;
66946;SDS011;53853;51.982;5.928;2023-09-19T07:34:00;12.02;;;3.30;;
66946;SDS011;53853;51.982;5.928;2023-09-19T07:36:34;12.95;;;3.15;;
66946;SDS011;53853;51.982;5.928;2023-09-19T07:39:04;9.70;;;2.63;;
66946;SDS011;53853;51.982;5.928;2023-09-19T07:41:34;11.10;;;3.20;;
66946;SDS011;53853;51.982;5.928;2023-09-19T07:44:04;10.88;;;3.83;;
66946;SDS011;53853;51.982;5.928;2023-09-19T07:46:35;11.32;;;4.10;;
66946;SDS011;53853;51.982;5.928;2023-09-19T07:49:05;12.05;;;3.45;;
66946;SDS011;53853;51.982;5.928;2023-09-19T07:51:39;13.45;;;3.05;;
66946;SDS011;53853;51.982;5.928;2023-09-19T07:54:12;14.38;;;3.53;;
66946;SDS011;53853;51.982;5.928;2023-09-19T07:56:42;10.45;;;2.60;;
66946;SDS011;53853;51.982;5.928;2023-09-19T07:59:12;11.77;;;4.18;;
66946;SDS011;53853;51.982;5.928;2023-09-19T08:01:43;14.68;;;4.15;;
66946;SDS011;53853;51.982;5.928;2023-09-19T08:04:13;14.43;;;3.22;;
66946;SDS011;53853;51.982;5.928;2023-09-19T08:06:47;12.65;;;3.58;;
66946;SDS011;53853;51.982;5.928;2023-09-19T08:09:18;12.27;;;3.73;;
66946;SDS011;53853;51.982;5.928;2023-09-19T08:11:49;10.73;;;3.40;;
66946;SDS011;53853;51.982;5.928;2023-09-19T08:14:19;17.98;;;3.78;;
66946;SDS011;53853;51.982;5.928;2023-09-19T08:16:50;15.57;;;3.78;;
66946;SDS011;53853;51.982;5.928;2023-09-19T08:19:24;10.95;;;3.45;;
66946;SDS011;53853;51.982;5.928;2023-09-19T08:21:59;15.35;;;3.45;;
66946;SDS011;53853;51.982;5.928;2023-09-19T08:24:29;15.35;;;4.25;;
66946;SDS011;53853;51.982;5.928;2023-09-19T08:27:00;11.93;;;3.72;;
66946;SDS011;53853;51.982;5.928;2023-09-19T08:29:31;16.27;;;3.67;;
66946;SDS011;53853;51.982;5.928;2023-09-19T08:32:01;12.35;;;3.45;;
66946;SDS011;53853;51.982;5.928;2023-09-19T08:34:32;12.13;;;3.83;;
66946;SDS011;53853;51.982;5.928;2023-09-19T08:37:07;16.10;;;4.07;;
66946;SDS011;53853;51.982;5.928;2023-09-19T08:39:37;12.80;;;3.92;;
66946;SDS011;53853;51.982;5.928;2023-09-19T08:42:06;10.25;;;3.65;;
66946;SDS011;53853;51.982;5.928;2023-09-19T08:44:37;11.32;;;3.80;;
66946;SDS011;53853;51.982;5.928;2023-09-19T08:47:10;9.10;;;3.53;;
66946;SDS011;53853;51.982;5.928;2023-09-19T08:49:48;8.93;;;3.63;;
66946;SDS011;53853;51.982;5.928;2023-09-19T08:52:32;13.18;;;3.80;;
66946;SDS011;53853;51.982;5.928;2023-09-19T08:55:09;13.20;;;4.25;;
66946;SDS011;53853;51.982;5.928;2023-09-19T08:57:46;11.10;;;3.83;;
66946;SDS011;53853;51.982;5.928;2023-09-19T09:00:20;12.68;;;3.22;;
66946;SDS011;53853;51.982;5.928;2023-09-19T09:02:53;13.05;;;4.32;;
66946;SDS011;53853;51.982;5.928;2023-09-19T09:05:25;10.88;;;3.17;;
66946;SDS011;53853;51.982;5.928;2023-09-19T09:07:58;17.58;;;4.65;;
66946;SDS011;53853;51.982;5.928;2023-09-19T09:10:29;9.40;;;3.30;;
66946;SDS011;53853;51.982;5.928;2023-09-19T09:12:59;12.25;;;3.50;;
66946;SDS011;53853;51.982;5.928;2023-09-19T09:15:34;8.47;;;3.30;;
66946;SDS011;53853;51.982;5.928;2023-09-19T09:18:06;15.93;;;4.25;;
66946;SDS011;53853;51.982;5.928;2023-09-19T09:20:36;13.50;;;4.95;;
66946;SDS011;53853;51.982;5.928;2023-09-19T09:23:09;11.68;;;3.63;;
66946;SDS011;53853;51.982;5.928;2023-09-19T09:25:49;11.55;;;3.72;;
66946;SDS011;53853;51.982;5.928;2023-09-19T09:28:28;10.70;;;3.25;;
66946;SDS011;53853;51.982;5.928;2023-09-19T09:30:59;11.73;;;3.22;;
66946;SDS011;53853;51.982;5.928;2023-09-19T09:33:34;8.27;;;2.92;;
66946;SDS011;53853;51.982;5.928;2023-09-19T09:36:05;8.82;;;2.78;;
66946;SDS011;53853;51.982;5.928;2023-09-19T09:38:47;9.60;;;3.03;;
66946;SDS011;53853;51.982;5.928;2023-09-19T09:41:21;10.93;;;3.17;;
66946;SDS011;53853;51.982;5.928;2023-09-19T09:44:11;12.45;;;3.83;;
66946;SDS011;53853;51.982;5.928;2023-09-19T09:46:43;15.20;;;3.08;;
66946;SDS011;53853;51.982;5.928;2023-09-19T09:49:47;10.05;;;3.33;;
66946;SDS011;53853;51.982;5.928;2023-09-19T09:52:36;9.30;;;3.45;;
66946;SDS011;53853;51.982;5.928;2023-09-19T09:55:17;10.18;;;3.47;;
66946;SDS011;53853;51.982;5.928;2023-09-19T09:57:47;11.10;;;3.22;;
66946;SDS011;53853;51.982;5.928;2023-09-19T10:00:31;11.38;;;3.35;;
66946;SDS011;53853;51.982;5.928;2023-09-19T10:03:10;11.55;;;3.60;;
66946;SDS011;53853;51.982;5.928;2023-09-19T10:05:53;11.98;;;3.50;;
66946;SDS011;53853;51.982;5.928;2023-09-19T10:08:23;11.88;;;3.42;;
66946;SDS011;53853;51.982;5.928;2023-09-19T10:10:59;9.02;;;2.92;;
66946;SDS011;53853;51.982;5.928;2023-09-19T10:13:37;12.00;;;3.35;;
66946;SDS011;53853;51.982;5.928;2023-09-19T10:16:08;10.48;;;3.20;;
66946;SDS011;53853;51.982;5.928;2023-09-19T10:18:41;10.70;;;3.47;;
66946;SDS011;53853;51.982;5.928;2023-09-19T10:21:12;11.10;;;3.45;;
66946;SDS011;53853;51.982;5.928;2023-09-19T10:23:48;10.45;;;3.33;;
66946;SDS011;53853;51.982;5.928;2023-09-19T10:26:25;10.57;;;3.30;;
66946;SDS011;53853;51.982;5.928;2023-09-19T10:28:56;10.57;;;3.28;;
66946;SDS011;53853;51.982;5.928;2023-09-19T10:31:29;9.23;;;2.67;;
66946;SDS011;53853;51.982;5.928;2023-09-19T10:34:06;7.63;;;2.97;;
66946;SDS011;53853;51.982;5.928;2023-09-19T10:36:39;8.30;;;3.05;;
66946;SDS011;53853;51.982;5.928;2023-09-19T10:39:13;12.00;;;3.58;;
66946;SDS011;53853;51.982;5.928;2023-09-19T10:41:53;10.75;;;3.33;;
66946;SDS011;53853;51.982;5.928;2023-09-19T10:44:25;10.52;;;3.65;;
66946;SDS011;53853;51.982;5.928;2023-09-19T10:46:57;11.23;;;3.08;;
66946;SDS011;53853;51.982;5.928;2023-09-19T10:49:28;8.82;;;2.70;;
66946;SDS011;53853;51.982;5.928;2023-09-19T10:51:59;9.77;;;3.35;;
66946;SDS011;53853;51.982;5.928;2023-09-19T10:54:32;13.25;;;3.55;;
66946;SDS011;53853;51.982;5.928;2023-09-19T10:57:09;9.70;;;2.85;;
66946;SDS011;53853;51.982;5.928;2023-09-19T10:59:48;6.72;;;2.80;;
66946;SDS011;53853;51.982;5.928;2023-09-19T11:11:48;9.93;;;3.10;;
66946;SDS011;53853;51.982;5.928;2023-09-19T11:14:32;7.82;;;3.15;;
66946;SDS011;53853;51.982;5.928;2023-09-19T11:23:17;9.23;;;2.78;;
66946;SDS011;53853;51.982;5.928;2023-09-19T11:25:49;10.38;;;3.13;;
66946;SDS011;53853;51.982;5.928;2023-09-19T11:28:29;11.02;;;2.90;;
66946;SDS011;53853;51.982;5.928;2023-09-19T11:40:11;9.57;;;2.80;;
66946;SDS011;53853;51.982;5.928;2023-09-19T11:42:45;8.05;;;3.20;;
66946;SDS011;53853;51.982;5.928;2023-09-19T11:48:23;9.73;;;2.47;;
66946;SDS011;53853;51.982;5.928;2023-09-19T11:50:57;9.45;;;3.03;;
66946;SDS011;53853;51.982;5.928;2023-09-19T11:53:33;9.90;;;2.70;;
66946;SDS011;53853;51.982;5.928;2023-09-19T11:56:05;8.45;;;2.72;;
66946;SDS011;53853;51.982;5.928;2023-09-19T11:58:36;7.40;;;2.40;;
66946;SDS011;53853;51.982;5.928;2023-09-19T12:01:08;8.82;;;2.80;;
66946;SDS011;53853;51.982;5.928;2023-09-19T12:03:45;11.60;;;2.83;;
66946;SDS011;53853;51.982;5.928;2023-09-19T12:06:23;8.55;;;2.70;;
66946;SDS011;53853;51.982;5.928;2023-09-19T12:08:55;9.15;;;2.92;;
66946;SDS011;53853;51.982;5.928;2023-09-19T12:11:27;8.40;;;2.60;;
66946;SDS011;53853;51.982;5.928;2023-09-19T12:14:01;8.55;;;2.60;;
66946;SDS011;53853;51.982;5.928;2023-09-19T12:16:31;7.63;;;2.33;;
66946;SDS011;53853;51.982;5.928;2023-09-19T12:19:17;7.55;;;2.25;;
66946;SDS011;53853;51.982;5.928;2023-09-19T12:21:58;8.10;;;2.70;;
66946;SDS011;53853;51.982;5.928;2023-09-19T12:24:31;9.40;;;2.80;;
66946;SDS011;53853;51.982;5.928;2023-09-19T12:27:05;7.43;;;2.37;;
66946;SDS011;53853;51.982;5.928;2023-09-19T12:29:43;10.40;;;2.78;;
66946;SDS011;53853;51.982;5.928;2023-09-19T12:32:14;5.88;;;2.33;;
66946;SDS011;53853;51.982;5.928;2023-09-19T12:34:50;4.85;;;1.75;;
66946;SDS011;53853;51.982;5.928;2023-09-19T12:37:24;7.63;;;2.25;;
66946;SDS011;53853;51.982;5.928;2023-09-19T12:40:03;8.38;;;2.00;;
66946;SDS011;53853;51.982;5.928;2023-09-19T12:42:42;5.53;;;2.10;;
66946;SDS011;53853;51.982;5.928;2023-09-19T12:45:14;8.23;;;2.30;;
66946;SDS011;53853;51.982;5.928;2023-09-19T12:50:59;5.60;;;2.22;;
66946;SDS011;53853;51.982;5.928;2023-09-19T12:53:36;5.43;;;1.60;;
66946;SDS011;53853;51.982;5.928;2023-09-19T12:56:09;3.92;;;1.70;;
66946;SDS011;53853;51.982;5.928;2023-09-19T12:58:50;8.77;;;2.28;;
66946;SDS011;53853;51.982;5.928;2023-09-19T13:01:21;8.75;;;2.30;;
66946;SDS011;53853;51.982;5.928;2023-09-19T13:06:52;6.20;;;1.70;;
66946;SDS011;53853;51.982;5.928;2023-09-19T13:09:29;4.55;;;1.65;;
66946;SDS011;53853;51.982;5.928;2023-09-19T13:14:31;9.52;;;1.92;;
66946;SDS011;53853;51.982;5.928;2023-09-19T13:17:04;4.28;;;1.80;;
66946;SDS011;53853;51.982;5.928;2023-09-19T13:19:42;5.82;;;1.77;;
66946;SDS011;53853;51.982;5.928;2023-09-19T13:25:13;5.28;;;1.98;;
66946;SDS011;53853;51.982;5.928;2023-09-19T13:30:17;4.40;;;1.67;;
66946;SDS011;53853;51.982;5.928;2023-09-19T13:32:47;4.60;;;1.70;;
66946;SDS011;53853;51.982;5.928;2023-09-19T13:35:18;11.07;;;2.47;;
66946;SDS011;53853;51.982;5.928;2023-09-19T13:37:48;3.45;;;1.25;;
66946;SDS011;53853;51.982;5.928;2023-09-19T13:40:21;3.58;;;1.60;;
66946;SDS011;53853;51.982;5.928;2023-09-19T13:43:00;6.53;;;1.45;;
66946;SDS011;53853;51.982;5.928;2023-09-19T13:45:32;3.25;;;1.52;;
66946;SDS011;53853;51.982;5.928;2023-09-19T13:48:03;3.15;;;1.33;;
66946;SDS011;53853;51.982;5.928;2023-09-19T13:50:34;4.35;;;1.60;;
66946;SDS011;53853;51.982;5.928;2023-09-19T13:53:07;4.80;;;1.35;;
66946;SDS011;53853;51.982;5.928;2023-09-19T13:55:40;7.35;;;2.25;;
66946;SDS011;53853;51.982;5.928;2023-09-19T13:58:10;5.20;;;1.52;;
66946;SDS011;53853;51.982;5.928;2023-09-19T14:00:40;6.07;;;1.63;;
66946;SDS011;53853;51.982;5.928;2023-09-19T14:03:10;6.40;;;2.03;;
66946;SDS011;53853;51.982;5.928;2023-09-19T14:05:40;3.63;;;1.30;;
66946;SDS011;53853;51.982;5.928;2023-09-19T14:08:10;3.95;;;1.40;;
66946;SDS011;53853;51.982;5.928;2023-09-19T14:10:43;5.60;;;1.35;;
66946;SDS011;53853;51.982;5.928;2023-09-19T14:13:13;5.60;;;1.10;;
66946;SDS011;53853;51.982;5.928;2023-09-19T14:15:43;2.95;;;1.50;;
66946;SDS011;53853;51.982;5.928;2023-09-19T14:18:13;3.67;;;1.10;;
66946;SDS011;53853;51.982;5.928;2023-09-19T14:20:44;5.07;;;1.20;;
66946;SDS011;53853;51.982;5.928;2023-09-19T14:23:14;6.90;;;2.08;;
66946;SDS011;53853;51.982;5.928;2023-09-19T14:25:46;5.05;;;1.42;;
66946;SDS011;53853;51.982;5.928;2023-09-19T14:28:17;5.88;;;1.67;;
66946;SDS011;53853;51.982;5.928;2023-09-19T14:30:47;4.63;;;1.50;;
66946;SDS011;53853;51.982;5.928;2023-09-19T14:33:17;6.07;;;1.50;;
66946;SDS011;53853;51.982;5.928;2023-09-19T14:35:47;5.05;;;1.58;;
66946;SDS011;53853;51.982;5.928;2023-09-19T14:38:17;4.15;;;1.40;;
66946;SDS011;53853;51.982;5.928;2023-09-19T14:40:50;5.28;;;1.42;;
66946;SDS011;53853;51.982;5.928;2023-09-19T14:43:29;3.85;;;1.30;;
66946;SDS011;53853;51.982;5.928;2023-09-19T14:46:02;4.70;;;1.77;;
66946;SDS011;53853;51.982;5.928;2023-09-19T14:48:33;4.43;;;1.50;;
66946;SDS011;53853;51.982;5.928;2023-09-19T14:51:03;3.95;;;1.83;;
66946;SDS011;53853;51.982;5.928;2023-09-19T14:53:34;7.45;;;2.00;;
66946;SDS011;53853;51.982;5.928;2023-09-19T14:56:09;4.20;;;1.63;;
66946;SDS011;53853;51.982;5.928;2023-09-19T14:58:44;4.25;;;1.63;;
66946;SDS011;53853;51.982;5.928;2023-09-19T15:01:14;4.93;;;1.70;;
66946;SDS011;53853;51.982;5.928;2023-09-19T15:03:44;5.90;;;1.90;;
66946;SDS011;53853;51.982;5.928;2023-09-19T15:06:15;5.55;;;1.60;;
66946;SDS011;53853;51.982;5.928;2023-09-19T15:08:46;6.22;;;2.17;;
66946;SDS011;53853;51.982;5.928;2023-09-19T15:11:19;4.95;;;1.63;;
66946;SDS011;53853;51.982;5.928;2023-09-19T15:13:50;4.85;;;1.30;;
66946;SDS011;53853;51.982;5.928;2023-09-19T15:16:22;5.53;;;2.10;;
66946;SDS011;53853;51.982;5.928;2023-09-19T15:18:52;4.05;;;1.60;;
66946;SDS011;53853;51.982;5.928;2023-09-19T15:21:22;5.00;;;1.88;;
66946;SDS011;53853;51.982;5.928;2023-09-19T15:23:52;6.10;;;1.73;;
66946;SDS011;53853;51.982;5.928;2023-09-19T15:26:24;5.07;;;1.67;;
66946;SDS011;53853;51.982;5.928;2023-09-19T15:28:54;4.28;;;1.85;;
66946;SDS011;53853;51.982;5.928;2023-09-19T15:31:25;7.40;;;2.00;;
66946;SDS011;53853;51.982;5.928;2023-09-19T15:33:56;4.60;;;1.75;;
66946;SDS011;53853;51.982;5.928;2023-09-19T15:36:26;5.65;;;2.42;;
66946;SDS011;53853;51.982;5.928;2023-09-19T15:38:59;6.50;;;2.00;;
66946;SDS011;53853;51.982;5.928;2023-09-19T15:41:35;3.95;;;1.40;;
66946;SDS011;53853;51.982;5.928;2023-09-19T15:44:10;6.88;;;1.50;;
66946;SDS011;53853;51.982;5.928;2023-09-19T15:46:42;5.82;;;2.00;;
66946;SDS011;53853;51.982;5.928;2023-09-19T15:49:12;6.15;;;2.00;;
66946;SDS011;53853;51.982;5.928;2023-09-19T15:51:42;5.40;;;1.70;;
66946;SDS011;53853;51.982;5.928;2023-09-19T15:54:13;5.50;;;1.90;;
66946;SDS011;53853;51.982;5.928;2023-09-19T15:56:46;4.95;;;1.60;;
66946;SDS011;53853;51.982;5.928;2023-09-19T15:59:17;6.22;;;2.00;;
66946;SDS011;53853;51.982;5.928;2023-09-19T16:01:47;4.85;;;1.55;;
66946;SDS011;53853;51.982;5.928;2023-09-19T16:04:17;4.65;;;2.03;;
66946;SDS011;53853;51.982;5.928;2023-09-19T16:06:47;9.80;;;2.70;;